Главная страница
METAR-TAF:

METAR-TAF

Аэропорты :

Каир, Египет

широта: 30-08N, долгота: 031-24E, высота над уровнем моря: 64 м

Текущие метеонаблюдения

Эта сводка был подготовлена 27 минут назад, в 07:00 UTC
Ветер 8 Узел от северо-восточный
Температура 21°C
Влажность 35%
Давление 1017 hPa
Видимость: 6000 м

METAR: HECA 230700Z 05008KT 6000 NSC 21/05 Q1017 NOSIG

Время: 09:27 (07:27 UTC)

Прогноз

Эта сводка был подготовлена 2 часа и 27 минут назад, в 05:00 UTC
Прогноз действительный с 23-го 06 UTC до 24-го 12 UTC
Ветер 7 Узел от северо-северо-восточный
Видимость 10 км и более
Нет облачности ниже 1500 м, и нет кучево-дождевой облачности
временами
С 23-го 06 UTC до 23-го 08 UTC
Ветер 3 Узел переменных направлений
Видимость: 4000 м
мгла

TAF: HECA 230500Z 2306/2412 02007KT CAVOK TEMPO 2306/2308 VRB03KT 4000 HZ NSC

Метеонаблюдения и прогнозы для более 4000 аэропортов (сводки METAR и TAF).

Имеющиеся станции представлены на карте желтыми и красными точками.

Чтобы увидеть название станции, наведите на нее мышь.

Затем щелкните, чтобы увидеть метеонаблюдения и метеопрогнозы.

Управление картой: чтобы увеличить масштаб, щелкните зеленые кнопки с черным крестиком; чтобы уменьшить масштаб, щелкните зеленую кнопку с тире; для просмотра соседних карт щелкайте зеленые стрелки.


METAR-TAF: